createdAt,value
2018-11-10T00:02:24.977Z,24.20
2018-11-10T00:04:53.573Z,23.73
2018-11-10T00:07:22.223Z,25.17
2018-11-10T00:09:50.856Z,23.00
2018-11-10T00:12:19.485Z,24.20
2018-11-10T00:14:48.078Z,23.77
2018-11-10T00:17:16.717Z,23.40
2018-11-10T00:19:45.305Z,23.73
2018-11-10T00:22:14.098Z,24.73
2018-11-10T00:24:42.694Z,23.33
2018-11-10T00:27:11.317Z,24.17
2018-11-10T00:29:39.949Z,23.23
2018-11-10T00:32:08.549Z,24.27
2018-11-10T00:34:37.207Z,22.97
2018-11-10T00:37:05.965Z,24.33
2018-11-10T00:39:34.565Z,24.43
2018-11-10T00:42:03.177Z,23.27
2018-11-10T00:44:31.857Z,24.47
2018-11-10T00:47:00.521Z,23.83
2018-11-10T00:49:29.142Z,24.87
2018-11-10T00:51:57.800Z,24.33
2018-11-10T00:54:26.467Z,24.50
2018-11-10T00:56:55.109Z,23.07
2018-11-10T00:59:23.744Z,24.87
2018-11-10T01:01:52.468Z,23.23
2018-11-10T01:04:21.193Z,22.80
2018-11-10T01:06:49.804Z,24.00
2018-11-10T01:09:18.393Z,24.47
2018-11-10T01:11:47.260Z,24.40
2018-11-10T01:14:15.861Z,25.00
2018-11-10T01:16:44.480Z,23.03
2018-11-10T01:19:13.085Z,22.87
2018-11-10T01:21:41.712Z,23.67
2018-11-10T01:24:10.298Z,23.93
2018-11-10T01:26:38.937Z,22.93
2018-11-10T01:29:08.009Z,24.53
2018-11-10T01:31:36.669Z,24.33
2018-11-10T01:34:05.531Z,25.13
2018-11-10T01:36:34.195Z,24.07
2018-11-10T01:39:03.917Z,24.83
2018-11-10T01:41:32.516Z,24.67
2018-11-10T01:44:01.150Z,24.77
2018-11-10T01:46:29.742Z,24.30
2018-11-10T01:48:58.372Z,23.63
2018-11-10T01:51:27.006Z,23.93
2018-11-10T01:53:55.625Z,25.53
2018-11-10T01:56:24.218Z,25.10
2018-11-10T01:58:52.846Z,22.57
2018-11-10T02:01:21.445Z,24.40
2018-11-10T02:03:50.118Z,24.37
2018-11-10T02:06:18.736Z,24.30
2018-11-10T02:08:47.406Z,25.30
2018-11-10T02:11:16.074Z,24.23
2018-11-10T02:13:44.718Z,23.90
2018-11-10T02:16:13.310Z,23.63
2018-11-10T02:18:41.902Z,23.07
2018-11-10T02:21:10.573Z,25.40
2018-11-10T02:23:39.292Z,24.50
2018-11-10T02:26:07.969Z,25.17
2018-11-10T02:28:36.620Z,25.73
2018-11-10T02:31:05.249Z,23.57
2018-11-10T02:33:33.862Z,25.17
2018-11-10T02:36:03.276Z,24.13
2018-11-10T02:38:31.951Z,24.47
2018-11-10T02:41:00.562Z,25.97
2018-11-10T02:43:29.189Z,23.40
2018-11-10T02:45:57.793Z,23.37
2018-11-10T02:48:26.432Z,25.90
2018-11-10T02:51:14.322Z,23.93
2018-11-10T02:53:43.010Z,23.57
2018-11-10T02:56:11.696Z,24.83
2018-11-10T02:58:40.331Z,25.53
2018-11-10T03:01:08.969Z,26.17
2018-11-10T03:03:37.641Z,24.03
2018-11-10T03:06:06.318Z,24.17
2018-11-10T03:08:34.962Z,24.80
2018-11-10T03:11:03.618Z,24.00
2018-11-10T03:13:32.231Z,24.03
2018-11-10T03:16:00.867Z,24.13
2018-11-10T03:18:29.514Z,24.33
2018-11-10T03:20:58.133Z,25.53
2018-11-10T03:23:26.773Z,23.87
2018-11-10T03:25:55.456Z,24.27
2018-11-10T03:28:24.116Z,23.93
2018-11-10T03:30:52.724Z,24.57
2018-11-10T03:33:21.398Z,26.27
2018-11-10T03:35:50.096Z,25.37
2018-11-10T03:38:18.720Z,26.93
2018-11-10T03:40:47.362Z,25.83
2018-11-10T03:43:15.988Z,24.57
2018-11-10T03:45:44.640Z,23.60
2018-11-10T03:48:13.246Z,24.70
2018-11-10T03:50:41.905Z,28.27
2018-11-10T03:53:10.512Z,27.07
2018-11-10T03:55:39.174Z,25.60
2018-11-10T03:58:07.797Z,26.77
2018-11-10T04:00:36.454Z,27.63
2018-11-10T04:03:05.090Z,27.77
2018-11-10T04:05:33.761Z,26.87
2018-11-10T04:08:02.393Z,26.93
2018-11-10T04:10:31.055Z,28.33
2018-11-10T04:12:59.689Z,27.93
2018-11-10T04:15:28.357Z,27.30
2018-11-10T04:17:56.975Z,27.13
2018-11-10T04:20:25.616Z,28.10
2018-11-10T04:22:54.258Z,27.43
2018-11-10T04:25:22.972Z,29.70
2018-11-10T04:27:51.625Z,28.90
2018-11-10T04:30:20.250Z,29.13
2018-11-10T04:32:48.901Z,27.03
2018-11-10T04:35:17.549Z,30.27
2018-11-10T04:37:46.201Z,29.50
2018-11-10T04:40:14.827Z,31.00
2018-11-10T04:42:43.483Z,29.43
2018-11-10T04:45:12.750Z,30.03
2018-11-10T04:47:41.406Z,30.37
2018-11-10T04:50:11.046Z,29.10
2018-11-10T04:52:39.834Z,28.97
2018-11-10T04:55:09.436Z,28.77
2018-11-10T04:57:38.164Z,31.40
2018-11-10T05:00:08.914Z,30.43
2018-11-10T05:02:37.594Z,29.10
2018-11-10T05:05:06.650Z,29.97
2018-11-10T05:07:35.341Z,30.33
2018-11-10T05:10:04.013Z,28.17
2018-11-10T05:12:32.669Z,30.70
2018-11-10T05:15:01.298Z,30.33
2018-11-10T05:17:30.048Z,28.23
2018-11-10T05:19:58.704Z,30.53
2018-11-10T05:22:27.377Z,30.57
2018-11-10T05:24:56.012Z,31.23
2018-11-10T05:27:24.653Z,30.23
2018-11-10T05:29:53.261Z,28.07
2018-11-10T05:32:21.917Z,31.07
2018-11-10T05:34:50.636Z,30.53
2018-11-10T05:37:19.274Z,31.07
2018-11-10T05:39:47.922Z,31.30
2018-11-10T05:42:16.553Z,30.50
2018-11-10T05:44:46.223Z,28.83
2018-11-10T05:47:14.904Z,27.87
2018-11-10T05:49:43.532Z,30.07
2018-11-10T05:52:12.181Z,26.97
2018-11-10T05:54:40.839Z,28.03
2018-11-10T05:57:09.574Z,29.30
2018-11-10T05:59:38.130Z,28.93
2018-11-10T06:02:06.877Z,29.00
2018-11-10T06:04:35.781Z,29.13
2018-11-10T06:07:04.450Z,27.97
2018-11-10T06:09:33.288Z,29.10
2018-11-10T06:12:01.913Z,27.67
2018-11-10T06:14:30.585Z,27.63
2018-11-10T06:16:59.266Z,29.10
2018-11-10T06:19:28.082Z,28.73
2018-11-10T06:21:56.789Z,28.80
2018-11-10T06:24:25.479Z,27.93
2018-11-10T06:26:54.238Z,28.90
2018-11-10T06:29:22.885Z,29.07
2018-11-10T06:31:51.557Z,27.97
2018-11-10T06:34:20.161Z,29.13
2018-11-10T06:36:48.803Z,30.67
2018-11-10T06:39:17.445Z,29.50
2018-11-10T06:41:46.129Z,28.77
2018-11-10T06:44:14.754Z,28.80
2018-11-10T06:46:43.397Z,28.73
2018-11-10T06:49:12.051Z,29.17
2018-11-10T06:51:40.726Z,28.70
2018-11-10T06:54:09.346Z,28.97
2018-11-10T06:56:38.000Z,28.70
2018-11-10T06:59:07.186Z,30.70
2018-11-10T07:01:35.832Z,30.00
2018-11-10T07:04:04.497Z,31.27
2018-11-10T07:06:33.183Z,31.77
2018-11-10T07:09:01.822Z,29.10
2018-11-10T07:11:30.478Z,29.30
2018-11-10T07:13:59.109Z,31.57
2018-11-10T07:16:27.768Z,31.03
2018-11-10T07:18:56.394Z,30.23
2018-11-10T07:21:25.091Z,30.53
2018-11-10T07:23:53.741Z,30.47
2018-11-10T07:26:22.403Z,32.07
2018-11-10T07:28:51.026Z,31.07
2018-11-10T07:31:19.689Z,30.87
2018-11-10T07:33:48.313Z,30.13
2018-11-10T07:36:16.949Z,29.97
2018-11-10T07:38:45.561Z,30.13
2018-11-10T07:41:14.236Z,29.33
2018-11-10T07:43:42.860Z,30.20
2018-11-10T07:46:11.611Z,28.57
2018-11-10T07:48:40.281Z,29.90
2018-11-10T07:51:08.955Z,28.57
2018-11-10T07:53:37.538Z,28.97
2018-11-10T07:56:06.858Z,28.87
2018-11-10T07:58:35.481Z,27.07
2018-11-10T08:01:04.203Z,28.00
2018-11-10T08:03:32.817Z,30.83
2018-11-10T08:06:01.486Z,29.27
2018-11-10T08:08:30.136Z,27.80
2018-11-10T08:10:58.765Z,30.13
2018-11-10T08:13:27.422Z,28.93
2018-11-10T08:15:56.089Z,29.73
2018-11-10T08:18:24.717Z,28.17
2018-11-10T08:20:53.378Z,28.57
2018-11-10T08:23:22.011Z,29.30
2018-11-10T08:25:50.685Z,26.43
2018-11-10T08:28:19.298Z,30.13
2018-11-10T08:30:47.940Z,29.70
2018-11-10T08:33:16.577Z,31.13
2018-11-10T08:35:45.225Z,29.00
2018-11-10T08:38:13.861Z,29.90
2018-11-10T08:40:42.585Z,29.93
2018-11-10T08:43:11.225Z,29.23
2018-11-10T08:45:39.931Z,28.67
2018-11-10T08:48:09.442Z,29.00
2018-11-10T08:50:38.141Z,29.73
2018-11-10T08:53:06.781Z,28.47
2018-11-10T08:55:35.419Z,29.97
2018-11-10T08:58:04.077Z,28.43
2018-11-10T09:00:32.716Z,28.90
2018-11-10T09:03:01.338Z,30.20
2018-11-10T09:05:29.987Z,28.17
2018-11-10T09:07:58.601Z,27.00
2018-11-10T09:10:27.233Z,26.77
2018-11-10T09:12:55.853Z,28.00
2018-11-10T09:15:24.513Z,25.80
2018-11-10T09:17:53.164Z,26.07
2018-11-10T09:20:21.787Z,25.13
2018-11-10T09:22:50.397Z,25.80
2018-11-10T09:25:19.037Z,25.40
2018-11-10T09:27:47.622Z,25.27
2018-11-10T09:30:17.320Z,24.17
2018-11-10T09:32:45.929Z,22.33
2018-11-10T09:35:15.202Z,22.90
2018-11-10T09:37:43.815Z,25.30
2018-11-10T09:40:13.699Z,23.57
2018-11-10T09:42:42.589Z,26.43
2018-11-10T09:45:12.600Z,24.40
2018-11-10T09:47:41.306Z,26.40
2018-11-10T09:50:14.165Z,24.20
2018-11-10T09:52:43.419Z,24.43
2018-11-10T09:55:12.267Z,23.83
2018-11-10T09:57:40.879Z,24.13
2018-11-10T10:00:13.036Z,24.10
2018-11-10T10:02:42.090Z,25.20
2018-11-10T10:05:10.782Z,24.83
2018-11-10T10:07:40.253Z,24.57
2018-11-10T10:10:10.552Z,24.20
2018-11-10T10:12:39.212Z,26.63
2018-11-10T10:15:09.366Z,23.27
2018-11-10T10:17:37.996Z,25.63
2018-11-10T10:20:09.074Z,24.87
2018-11-10T10:22:37.733Z,26.13
2018-11-10T10:25:07.549Z,26.50
2018-11-10T10:27:36.262Z,26.13
2018-11-10T10:30:06.542Z,24.97
2018-11-10T10:32:35.157Z,25.53
2018-11-10T10:35:04.064Z,25.80
2018-11-10T10:37:32.760Z,25.77
2018-11-10T10:40:01.387Z,25.20
2018-11-10T10:42:29.992Z,26.33
2018-11-10T10:44:58.681Z,26.13
2018-11-10T10:47:27.321Z,24.93
2018-11-10T10:50:03.486Z,25.57
2018-11-10T10:52:32.125Z,25.20
2018-11-10T10:55:00.777Z,27.03
2018-11-10T10:57:29.385Z,26.50
2018-11-10T10:59:58.056Z,28.40
2018-11-10T11:02:31.983Z,26.03
2018-11-10T11:05:04.862Z,26.27
2018-11-10T11:07:33.576Z,27.07
2018-11-10T11:10:02.371Z,30.93
2018-11-10T11:12:30.983Z,32.63
2018-11-10T11:14:59.658Z,28.23
2018-11-10T11:17:28.289Z,26.80
2018-11-10T11:19:56.972Z,26.97
2018-11-10T11:22:25.582Z,25.60
2018-11-10T11:24:54.209Z,26.60
2018-11-10T11:27:22.841Z,25.23
2018-11-10T11:29:51.696Z,24.27
2018-11-10T11:32:20.294Z,25.60
2018-11-10T11:34:48.934Z,28.53
2018-11-10T11:37:17.547Z,25.60
2018-11-10T11:39:46.186Z,25.77
2018-11-10T11:42:14.842Z,28.10
2018-11-10T11:44:43.536Z,26.40
2018-11-10T11:47:12.180Z,25.73
2018-11-10T11:49:43.721Z,25.57
2018-11-10T11:52:12.360Z,25.37
2018-11-10T11:54:40.994Z,25.43
2018-11-10T11:57:09.602Z,26.97
2018-11-10T11:59:38.229Z,25.60
2018-11-10T12:02:06.944Z,27.60
2018-11-10T12:04:35.571Z,27.13
2018-11-10T12:07:04.189Z,25.30
2018-11-10T12:09:32.837Z,24.57
2018-11-10T12:12:01.521Z,24.57
2018-11-10T12:14:30.195Z,27.77
2018-11-10T12:16:59.949Z,25.97
2018-11-10T12:19:28.538Z,25.63
2018-11-10T12:21:57.200Z,25.60
2018-11-10T12:24:25.833Z,24.80
2018-11-10T12:26:54.640Z,26.83
2018-11-10T12:29:23.293Z,25.83
2018-11-10T12:31:51.953Z,25.50
2018-11-10T12:34:20.566Z,23.67
2018-11-10T12:36:49.165Z,25.60
2018-11-10T12:39:17.805Z,23.40
2018-11-10T12:41:46.437Z,25.50
2018-11-10T12:44:15.075Z,23.93
2018-11-10T12:46:43.725Z,25.77
2018-11-10T12:49:12.457Z,24.63
2018-11-10T12:51:41.056Z,22.50
2018-11-10T12:54:09.698Z,23.57
2018-11-10T12:56:38.389Z,23.97
2018-11-10T12:59:07.791Z,23.03
2018-11-10T13:01:36.428Z,22.27
2018-11-10T13:04:05.578Z,23.13
2018-11-10T13:06:34.317Z,23.37
2018-11-10T13:09:03.115Z,21.70
2018-11-10T13:11:31.802Z,23.13
2018-11-10T13:14:00.358Z,23.17
2018-11-10T13:16:29.015Z,23.20
2018-11-10T13:18:57.689Z,23.37
2018-11-10T13:21:26.418Z,26.07
2018-11-10T13:23:55.087Z,23.67
2018-11-10T13:26:23.698Z,22.50
2018-11-10T13:28:52.347Z,21.60
2018-11-10T13:31:21.111Z,22.57
2018-11-10T13:33:49.694Z,23.40
2018-11-10T13:36:18.324Z,22.37
2018-11-10T13:38:46.980Z,23.23
2018-11-10T13:41:15.614Z,23.23
2018-11-10T13:43:44.297Z,24.07
2018-11-10T13:46:12.861Z,23.80
2018-11-10T13:48:41.502Z,23.80
2018-11-10T13:51:10.409Z,23.67
2018-11-10T13:53:38.823Z,22.87
2018-11-10T13:56:07.434Z,21.47
2018-11-10T13:58:36.074Z,21.73
2018-11-10T14:01:05.110Z,22.30
2018-11-10T14:03:33.942Z,22.17
2018-11-10T14:06:02.545Z,23.70
2018-11-10T14:08:31.218Z,23.43
2018-11-10T14:10:59.838Z,23.47
2018-11-10T14:13:28.488Z,23.00
2018-11-10T14:15:57.107Z,22.10
2018-11-10T14:18:25.750Z,23.50
2018-11-10T14:20:54.419Z,21.77
2018-11-10T14:23:23.070Z,22.30
2018-11-10T14:25:51.769Z,22.33
2018-11-10T14:28:20.417Z,21.67
2018-11-10T14:30:49.037Z,21.37
2018-11-10T14:33:17.676Z,22.13
2018-11-10T14:35:46.281Z,20.80
2018-11-10T14:38:14.925Z,22.63
2018-11-10T14:40:43.546Z,21.80
2018-11-10T14:43:12.177Z,21.07
2018-11-10T14:45:40.786Z,22.60
2018-11-10T14:48:09.421Z,22.20
2018-11-10T14:50:38.050Z,21.30
2018-11-10T14:53:06.893Z,23.83
2018-11-10T14:55:41.905Z,24.13
2018-11-10T14:58:10.555Z,23.80
2018-11-10T15:00:39.292Z,23.23
2018-11-10T15:03:07.946Z,23.73
2018-11-10T15:05:36.606Z,22.97
2018-11-10T15:08:05.781Z,24.83
2018-11-10T15:10:35.234Z,26.03
2018-11-10T15:13:03.885Z,24.13
2018-11-10T15:15:32.563Z,21.47
2018-11-10T15:18:01.327Z,22.30
2018-11-10T15:20:29.934Z,23.23
2018-11-10T15:22:58.569Z,22.37
2018-11-10T15:25:27.243Z,23.13
2018-11-10T15:27:55.865Z,24.90
2018-11-10T15:30:24.586Z,22.87
2018-11-10T15:32:53.282Z,24.70
2018-11-10T15:35:22.593Z,24.40
2018-11-10T15:37:52.228Z,28.00
2018-11-10T15:40:21.480Z,32.50
2018-11-10T15:42:50.216Z,27.90
2018-11-10T15:45:19.706Z,28.73
2018-11-10T15:47:48.336Z,29.43
2018-11-10T15:50:17.839Z,30.60
2018-11-10T15:52:46.514Z,33.23
2018-11-10T15:55:15.224Z,30.07
2018-11-10T15:57:44.027Z,30.93
2018-11-10T16:00:17.794Z,28.63
2018-11-10T16:02:46.535Z,29.50
2018-11-10T16:05:15.697Z,24.33
2018-11-10T16:07:44.465Z,24.97
2018-11-10T16:10:13.212Z,26.73
2018-11-10T16:12:42.007Z,24.97
2018-11-10T16:15:12.610Z,26.00
2018-11-10T16:17:41.599Z,24.20
2018-11-10T16:20:12.824Z,27.13
2018-11-10T16:22:41.531Z,24.77
2018-11-10T16:25:10.585Z,25.93
2018-11-10T16:27:39.228Z,23.03
2018-11-10T16:30:09.708Z,22.97
2018-11-10T16:32:38.356Z,23.93
2018-11-10T16:35:07.397Z,25.60
2018-11-10T16:37:36.035Z,25.73
2018-11-10T16:40:06.139Z,25.90
2018-11-10T16:42:34.815Z,38.77
2018-11-10T16:45:03.463Z,40.70
2018-11-10T16:47:32.130Z,36.47
2018-11-10T16:50:00.758Z,30.13
2018-11-10T16:52:29.391Z,26.80
2018-11-10T16:54:58.079Z,27.70
2018-11-10T16:57:27.246Z,41.77
2018-11-10T16:59:56.186Z,32.07
2018-11-10T17:02:25.063Z,26.77
2018-11-10T17:04:53.815Z,23.13
2018-11-10T17:07:22.640Z,22.33
2018-11-10T17:09:51.248Z,22.90
2018-11-10T17:12:19.897Z,26.00
2018-11-10T17:14:48.541Z,23.47
2018-11-10T17:17:17.221Z,28.10
2018-11-10T17:19:45.919Z,25.80
2018-11-10T17:22:14.637Z,25.10
2018-11-10T17:24:43.183Z,25.50
2018-11-10T17:27:11.944Z,23.30
2018-11-10T17:29:40.510Z,22.27
2018-11-10T17:32:09.170Z,22.20
2018-11-10T17:34:40.717Z,21.70
2018-11-10T17:37:09.412Z,21.43
2018-11-10T17:39:38.089Z,23.17
2018-11-10T17:42:06.681Z,26.13
2018-11-10T17:44:35.329Z,31.80
2018-11-10T17:47:04.081Z,20.93
2018-11-10T17:49:32.709Z,22.77
2018-11-10T17:52:01.745Z,22.40
2018-11-10T17:54:30.382Z,22.70
2018-11-10T17:56:59.029Z,22.37
2018-11-10T17:59:27.670Z,22.57
2018-11-10T18:01:56.469Z,21.67
2018-11-10T18:04:24.977Z,21.77
2018-11-10T18:06:53.625Z,21.37
2018-11-10T18:09:22.213Z,23.63
2018-11-10T18:11:50.842Z,23.17
2018-11-10T18:14:20.210Z,22.43
2018-11-10T18:16:48.910Z,23.37
2018-11-10T18:19:17.580Z,21.77
2018-11-10T18:21:46.245Z,23.17
2018-11-10T18:24:14.858Z,22.77
2018-11-10T18:26:43.502Z,21.97
2018-11-10T18:29:12.169Z,22.13
2018-11-10T18:31:40.815Z,22.13
2018-11-10T18:34:11.348Z,20.43
2018-11-10T18:36:39.993Z,22.13
2018-11-10T18:39:09.800Z,22.23
2018-11-10T18:41:38.630Z,21.77
2018-11-10T18:44:07.557Z,21.70
2018-11-10T18:46:42.535Z,22.47
2018-11-10T18:49:11.079Z,22.67
2018-11-10T18:51:39.737Z,22.23
2018-11-10T18:54:08.369Z,23.53
2018-11-10T18:56:36.984Z,22.83
2018-11-10T18:59:06.579Z,22.53
2018-11-10T19:01:35.221Z,25.07
2018-11-10T19:04:03.933Z,24.83
2018-11-10T19:06:32.559Z,22.83
2018-11-10T19:09:01.178Z,23.93
2018-11-10T19:11:29.809Z,21.77
2018-11-10T19:13:58.463Z,22.90
2018-11-10T19:16:27.211Z,23.60
2018-11-10T19:18:56.026Z,22.50
2018-11-10T19:21:24.650Z,23.53
2018-11-10T19:23:53.298Z,23.57
2018-11-10T19:26:21.926Z,22.17
2018-11-10T19:28:50.636Z,23.60
2018-11-10T19:31:19.317Z,21.47
2018-11-10T19:33:47.978Z,23.03
2018-11-10T19:36:16.610Z,23.57
2018-11-10T19:38:45.217Z,22.80
2018-11-10T19:41:13.876Z,23.00
2018-11-10T19:43:42.531Z,22.37
2018-11-10T19:46:11.169Z,23.20
2018-11-10T19:48:39.794Z,22.17
2018-11-10T19:51:12.335Z,22.50
2018-11-10T19:53:41.641Z,23.00
2018-11-10T19:56:10.938Z,22.27
2018-11-10T19:58:39.604Z,23.87
2018-11-10T20:01:09.080Z,23.03
2018-11-10T20:03:37.736Z,22.83
2018-11-10T20:06:06.417Z,23.33
2018-11-10T20:08:35.086Z,25.10
2018-11-10T20:11:03.713Z,23.67
2018-11-10T20:13:32.321Z,23.50
2018-11-10T20:16:01.495Z,21.83
2018-11-10T20:18:30.113Z,22.90
2018-11-10T20:20:59.601Z,24.13
2018-11-10T20:23:28.222Z,24.33
2018-11-10T20:25:57.119Z,23.57
2018-11-10T20:28:25.770Z,22.43
2018-11-10T20:30:54.388Z,23.93
2018-11-10T20:33:23.002Z,23.77
2018-11-10T20:35:51.590Z,22.93
2018-11-10T20:38:20.199Z,23.93
2018-11-10T20:40:48.842Z,24.33
2018-11-10T20:43:17.550Z,22.80
2018-11-10T20:45:46.169Z,24.53
2018-11-10T20:48:14.791Z,22.37
2018-11-10T20:50:43.423Z,23.67
2018-11-10T20:53:12.082Z,24.50
2018-11-10T20:55:40.715Z,23.53
2018-11-10T20:58:09.354Z,24.27
2018-11-10T21:00:38.029Z,22.67
2018-11-10T21:03:06.646Z,22.67
2018-11-10T21:05:35.284Z,23.57
2018-11-10T21:08:03.972Z,24.50
2018-11-10T21:10:32.613Z,22.77
2018-11-10T21:13:01.340Z,22.03
2018-11-10T21:15:29.913Z,23.73
2018-11-10T21:17:58.574Z,25.17
2018-11-10T21:20:27.229Z,25.07
2018-11-10T21:22:55.858Z,25.20
2018-11-10T21:25:24.482Z,23.13
2018-11-10T21:27:53.123Z,21.93
2018-11-10T21:30:21.747Z,22.37
2018-11-10T21:32:50.545Z,22.83
2018-11-10T21:35:19.260Z,24.83
2018-11-10T21:37:47.826Z,24.80
2018-11-10T21:40:18.477Z,20.50
2018-11-10T21:42:47.127Z,22.77
2018-11-10T21:45:16.319Z,24.30
2018-11-10T21:47:45.178Z,22.90
2018-11-10T21:50:15.135Z,21.93
2018-11-10T21:52:44.446Z,22.97
2018-11-10T21:55:14.454Z,23.30
2018-11-10T21:57:43.671Z,22.60
2018-11-10T22:00:13.831Z,22.77
2018-11-10T22:02:43.080Z,21.67
2018-11-10T22:05:11.798Z,22.07
2018-11-10T22:07:40.448Z,22.30
2018-11-10T22:10:11.090Z,23.10
2018-11-10T22:12:39.745Z,22.37
2018-11-10T22:15:10.989Z,23.50
2018-11-10T22:17:39.853Z,21.73
2018-11-10T22:20:09.895Z,22.33
2018-11-10T22:22:39.020Z,21.43
2018-11-10T22:25:08.636Z,22.23
2018-11-10T22:27:37.850Z,22.27
2018-11-10T22:30:07.571Z,23.13
2018-11-10T22:32:36.231Z,22.40
2018-11-10T22:35:05.485Z,25.10
2018-11-10T22:37:34.150Z,24.37
2018-11-10T22:40:03.122Z,23.20
2018-11-10T22:42:31.718Z,20.73
2018-11-10T22:45:00.358Z,22.67
2018-11-10T22:47:28.982Z,22.17
2018-11-10T22:49:57.597Z,22.83
2018-11-10T22:52:26.225Z,23.97
2018-11-10T22:54:54.832Z,23.20
2018-11-10T22:57:23.461Z,21.93
2018-11-10T22:59:52.556Z,22.60
2018-11-10T23:02:21.173Z,23.93
2018-11-10T23:04:49.773Z,24.50
2018-11-10T23:07:18.406Z,24.97
2018-11-10T23:09:47.036Z,22.83
2018-11-10T23:12:15.682Z,22.83
2018-11-10T23:14:44.298Z,22.93
2018-11-10T23:17:13.017Z,23.73
2018-11-10T23:19:41.612Z,22.57
2018-11-10T23:22:10.269Z,23.00
2018-11-10T23:24:38.876Z,24.80
2018-11-10T23:27:07.507Z,22.77
2018-11-10T23:29:36.112Z,25.83
2018-11-10T23:32:05.174Z,23.03
2018-11-10T23:34:33.771Z,24.77
2018-11-10T23:37:02.377Z,22.60
2018-11-10T23:39:30.993Z,22.40
2018-11-10T23:41:59.637Z,27.13
2018-11-10T23:44:28.225Z,22.77
2018-11-10T23:46:56.857Z,21.77
2018-11-10T23:49:25.470Z,21.03
2018-11-10T23:51:54.113Z,21.67
2018-11-10T23:54:22.710Z,22.57
2018-11-10T23:56:51.327Z,23.60
2018-11-10T23:59:19.937Z,22.27
